This is the latest recevied weather packets stored in our database for station/object 9W2EXL-13. If no packets are shown the sender has not sent any weather packets the latest 10 day(s).
| Time | Temp. | Humidity | Pressure | Rain* | Wind** | Luminosity | Snow |
|---|---|---|---|---|---|---|---|
| 1788122178 | 29.44° C | 97% | 1010.6 hPa | - | - | - | - |
| 1788121278 | 29.44° C | 98% | 1010.6 hPa | - | - | - | - |
| 1788120377 | 30° C | 97% | 1010.7 hPa | - | - | - | - |
| 1788119477 | 30° C | 98% | 1010.7 hPa | - | - | - | - |
| 1788118577 | 30° C | 99% | 1010.7 hPa | - | - | - | - |
| 1788114978 | 30.56° C | 100% | 1011.4 hPa | - | - | - | - |
| 1788114077 | 30.56° C | 100% | 1011.5 hPa | - | - | - | - |
| 1788113178 | 30.56° C | 100% | 1011.6 hPa | - | - | - | - |
| 1788103278 | 31.11° C | 97% | 1012.3 hPa | - | - | - | - |
| 1788101475 | 31.67° C | 96% | 1012.1 hPa | - | - | - | - |
| 1788100575 | 31.67° C | 96% | 1012.2 hPa | - | - | - | - |
| 1788099675 | 31.67° C | 95% | 1012 hPa | - | - | - | - |
| 1788098775 | 31.67° C | 95% | 1011.8 hPa | - | - | - | - |
| 1788097875 | 32.22° C | 94% | 1011.6 hPa | - | - | - | - |
| 1788096975 | 32.22° C | 93% | 1011.4 hPa | - | - | - | - |
| 1788095175 | 32.78° C | 91% | 1010.9 hPa | - | - | - | - |
| 1788092474 | 33.33° C | 86% | 1010.1 hPa | - | - | - | - |
| 1788090674 | 33.89° C | 82% | 1009.5 hPa | - | - | - | - |
| 1788089774 | 33.89° C | 81% | 1009.2 hPa | - | - | - | - |
| 1788087074 | 34.44° C | 77% | 1008.9 hPa | - | - | - | - |
| 1788086174 | 35° C | 76% | 1008.9 hPa | - | - | - | - |
| 1788085275 | 35° C | 75% | 1008.9 hPa | - | - | - | - |
| 1788080773 | 35.56° C | 74% | 1009 hPa | - | - | - | - |
| 1788076275 | 35° C | 80% | 1009.3 hPa | - | - | - | - |
| 1788075372 | 34.44° C | 81% | 1009.6 hPa | - | - | - | - |
* Rain since midnight (hover to see other rain measurements)
** Current wind speed in m/s (hover to see current wind gust speed)